sensor_id;sensor_type;location;lat;lon;timestamp;P1;durP1;ratioP1;P2;durP2;ratioP2
69161;SDS011;56269;51.738;21.652;2022-07-10T00:00:39;10.15;;;4.68;;
69161;SDS011;56269;51.738;21.652;2022-07-10T00:03:05;8.65;;;4.38;;
69161;SDS011;56269;51.738;21.652;2022-07-10T00:05:31;10.50;;;4.40;;
69161;SDS011;56269;51.738;21.652;2022-07-10T00:08:00;8.95;;;4.70;;
69161;SDS011;56269;51.738;21.652;2022-07-10T00:10:26;8.53;;;4.57;;
69161;SDS011;56269;51.738;21.652;2022-07-10T00:12:54;11.55;;;4.65;;
69161;SDS011;56269;51.738;21.652;2022-07-10T00:15:20;8.88;;;4.78;;
69161;SDS011;56269;51.738;21.652;2022-07-10T00:17:47;9.73;;;5.00;;
69161;SDS011;56269;51.738;21.652;2022-07-10T00:20:15;8.95;;;5.07;;
69161;SDS011;56269;51.738;21.652;2022-07-10T00:22:42;11.83;;;5.37;;
69161;SDS011;56269;51.738;21.652;2022-07-10T00:25:09;11.75;;;5.00;;
69161;SDS011;56269;51.738;21.652;2022-07-10T00:27:37;14.15;;;5.05;;
69161;SDS011;56269;51.738;21.652;2022-07-10T00:30:04;9.85;;;5.05;;
69161;SDS011;56269;51.738;21.652;2022-07-10T00:32:30;12.02;;;5.22;;
69161;SDS011;56269;51.738;21.652;2022-07-10T00:34:57;10.87;;;5.07;;
69161;SDS011;56269;51.738;21.652;2022-07-10T00:37:23;11.13;;;5.20;;
69161;SDS011;56269;51.738;21.652;2022-07-10T00:39:49;14.73;;;5.38;;
69161;SDS011;56269;51.738;21.652;2022-07-10T00:42:15;10.27;;;5.38;;
69161;SDS011;56269;51.738;21.652;2022-07-10T00:44:41;11.10;;;5.43;;
69161;SDS011;56269;51.738;21.652;2022-07-10T00:47:09;11.88;;;5.85;;
69161;SDS011;56269;51.738;21.652;2022-07-10T00:49:37;11.35;;;5.95;;
69161;SDS011;56269;51.738;21.652;2022-07-10T00:52:08;11.65;;;5.75;;
69161;SDS011;56269;51.738;21.652;2022-07-10T00:54:37;13.63;;;6.82;;
69161;SDS011;56269;51.738;21.652;2022-07-10T00:57:07;13.63;;;6.50;;
69161;SDS011;56269;51.738;21.652;2022-07-10T00:59:33;12.93;;;6.68;;
69161;SDS011;56269;51.738;21.652;2022-07-10T01:02:01;15.05;;;6.63;;
69161;SDS011;56269;51.738;21.652;2022-07-10T01:04:29;12.43;;;6.50;;
69161;SDS011;56269;51.738;21.652;2022-07-10T01:06:55;13.02;;;6.22;;
69161;SDS011;56269;51.738;21.652;2022-07-10T01:09:21;12.80;;;5.97;;
69161;SDS011;56269;51.738;21.652;2022-07-10T01:11:47;12.52;;;6.20;;
69161;SDS011;56269;51.738;21.652;2022-07-10T01:14:16;13.70;;;6.15;;
69161;SDS011;56269;51.738;21.652;2022-07-10T01:16:43;14.18;;;6.00;;
69161;SDS011;56269;51.738;21.652;2022-07-10T01:19:09;10.75;;;5.82;;
69161;SDS011;56269;51.738;21.652;2022-07-10T01:21:35;13.23;;;6.07;;
69161;SDS011;56269;51.738;21.652;2022-07-10T01:24:09;10.52;;;5.70;;
69161;SDS011;56269;51.738;21.652;2022-07-10T01:26:36;11.48;;;5.75;;
69161;SDS011;56269;51.738;21.652;2022-07-10T01:29:06;11.70;;;5.95;;
69161;SDS011;56269;51.738;21.652;2022-07-10T01:31:32;10.82;;;5.80;;
69161;SDS011;56269;51.738;21.652;2022-07-10T01:34:02;12.30;;;5.70;;
69161;SDS011;56269;51.738;21.652;2022-07-10T01:36:32;13.07;;;6.13;;
69161;SDS011;56269;51.738;21.652;2022-07-10T01:38:58;14.18;;;6.18;;
69161;SDS011;56269;51.738;21.652;2022-07-10T01:41:25;18.05;;;6.28;;
69161;SDS011;56269;51.738;21.652;2022-07-10T01:43:52;14.65;;;6.75;;
69161;SDS011;56269;51.738;21.652;2022-07-10T01:46:18;13.07;;;6.40;;
69161;SDS011;56269;51.738;21.652;2022-07-10T01:48:44;11.77;;;6.18;;
69161;SDS011;56269;51.738;21.652;2022-07-10T01:51:11;14.88;;;6.43;;
69161;SDS011;56269;51.738;21.652;2022-07-10T01:53:38;14.00;;;6.45;;
69161;SDS011;56269;51.738;21.652;2022-07-10T01:56:06;16.58;;;6.72;;
69161;SDS011;56269;51.738;21.652;2022-07-10T01:58:34;14.03;;;6.47;;
69161;SDS011;56269;51.738;21.652;2022-07-10T02:01:01;12.40;;;5.97;;
69161;SDS011;56269;51.738;21.652;2022-07-10T02:03:27;14.48;;;6.60;;
69161;SDS011;56269;51.738;21.652;2022-07-10T02:06:12;13.95;;;6.70;;
69161;SDS011;56269;51.738;21.652;2022-07-10T02:08:37;11.63;;;6.33;;
69161;SDS011;56269;51.738;21.652;2022-07-10T02:11:03;12.60;;;6.05;;
69161;SDS011;56269;51.738;21.652;2022-07-10T02:13:30;16.50;;;6.20;;
69161;SDS011;56269;51.738;21.652;2022-07-10T02:15:57;12.25;;;6.20;;
69161;SDS011;56269;51.738;21.652;2022-07-10T02:18:23;12.55;;;6.30;;
69161;SDS011;56269;51.738;21.652;2022-07-10T02:20:50;12.80;;;5.97;;
69161;SDS011;56269;51.738;21.652;2022-07-10T02:23:16;12.10;;;5.78;;
69161;SDS011;56269;51.738;21.652;2022-07-10T02:25:43;12.32;;;6.10;;
69161;SDS011;56269;51.738;21.652;2022-07-10T02:28:09;12.25;;;5.88;;
69161;SDS011;56269;51.738;21.652;2022-07-10T02:30:36;13.10;;;5.72;;
69161;SDS011;56269;51.738;21.652;2022-07-10T02:33:02;11.60;;;5.77;;
69161;SDS011;56269;51.738;21.652;2022-07-10T02:35:29;11.45;;;5.85;;
69161;SDS011;56269;51.738;21.652;2022-07-10T02:37:55;11.57;;;5.55;;
69161;SDS011;56269;51.738;21.652;2022-07-10T02:40:20;12.02;;;5.80;;
69161;SDS011;56269;51.738;21.652;2022-07-10T02:42:47;12.70;;;5.53;;
69161;SDS011;56269;51.738;21.652;2022-07-10T02:45:13;12.48;;;5.35;;
69161;SDS011;56269;51.738;21.652;2022-07-10T02:47:38;12.23;;;5.60;;
69161;SDS011;56269;51.738;21.652;2022-07-10T02:50:05;13.32;;;5.85;;
69161;SDS011;56269;51.738;21.652;2022-07-10T02:52:31;17.63;;;6.07;;
69161;SDS011;56269;51.738;21.652;2022-07-10T02:54:57;15.93;;;6.03;;
69161;SDS011;56269;51.738;21.652;2022-07-10T02:57:24;14.77;;;6.28;;
69161;SDS011;56269;51.738;21.652;2022-07-10T02:59:50;12.50;;;5.95;;
69161;SDS011;56269;51.738;21.652;2022-07-10T03:02:16;13.18;;;6.25;;
69161;SDS011;56269;51.738;21.652;2022-07-10T03:04:43;12.77;;;6.00;;
69161;SDS011;56269;51.738;21.652;2022-07-10T03:07:08;12.57;;;6.07;;
69161;SDS011;56269;51.738;21.652;2022-07-10T03:09:34;12.60;;;5.80;;
69161;SDS011;56269;51.738;21.652;2022-07-10T03:12:01;13.30;;;6.30;;
69161;SDS011;56269;51.738;21.652;2022-07-10T03:14:26;13.10;;;6.10;;
69161;SDS011;56269;51.738;21.652;2022-07-10T03:16:52;14.60;;;5.65;;
69161;SDS011;56269;51.738;21.652;2022-07-10T03:19:18;11.65;;;5.57;;
69161;SDS011;56269;51.738;21.652;2022-07-10T03:21:44;13.07;;;5.70;;
69161;SDS011;56269;51.738;21.652;2022-07-10T03:24:11;10.30;;;5.15;;
69161;SDS011;56269;51.738;21.652;2022-07-10T03:26:38;12.75;;;5.20;;
69161;SDS011;56269;51.738;21.652;2022-07-10T03:29:04;12.00;;;4.65;;
69161;SDS011;56269;51.738;21.652;2022-07-10T03:31:30;11.60;;;5.13;;
69161;SDS011;56269;51.738;21.652;2022-07-10T03:33:56;10.20;;;4.43;;
69161;SDS011;56269;51.738;21.652;2022-07-10T03:36:22;10.30;;;4.15;;
69161;SDS011;56269;51.738;21.652;2022-07-10T03:38:47;7.95;;;4.05;;
69161;SDS011;56269;51.738;21.652;2022-07-10T03:41:14;11.00;;;4.38;;
69161;SDS011;56269;51.738;21.652;2022-07-10T03:43:40;10.00;;;4.20;;
69161;SDS011;56269;51.738;21.652;2022-07-10T03:46:06;7.88;;;4.00;;
69161;SDS011;56269;51.738;21.652;2022-07-10T03:48:32;7.80;;;4.00;;
69161;SDS011;56269;51.738;21.652;2022-07-10T03:50:59;8.75;;;4.00;;
69161;SDS011;56269;51.738;21.652;2022-07-10T03:53:25;8.57;;;3.90;;
69161;SDS011;56269;51.738;21.652;2022-07-10T03:55:53;8.73;;;3.93;;
69161;SDS011;56269;51.738;21.652;2022-07-10T03:58:19;9.75;;;3.75;;
69161;SDS011;56269;51.738;21.652;2022-07-10T04:00:46;8.65;;;3.80;;
69161;SDS011;56269;51.738;21.652;2022-07-10T04:03:12;8.57;;;3.95;;
69161;SDS011;56269;51.738;21.652;2022-07-10T04:05:39;8.00;;;3.75;;
69161;SDS011;56269;51.738;21.652;2022-07-10T04:08:05;8.23;;;3.20;;
69161;SDS011;56269;51.738;21.652;2022-07-10T04:10:32;8.13;;;3.60;;
69161;SDS011;56269;51.738;21.652;2022-07-10T04:12:58;8.18;;;3.83;;
69161;SDS011;56269;51.738;21.652;2022-07-10T04:15:24;7.63;;;3.42;;
69161;SDS011;56269;51.738;21.652;2022-07-10T04:17:51;8.52;;;3.58;;
69161;SDS011;56269;51.738;21.652;2022-07-10T04:20:19;7.13;;;3.40;;
69161;SDS011;56269;51.738;21.652;2022-07-10T04:22:45;6.97;;;3.40;;
69161;SDS011;56269;51.738;21.652;2022-07-10T04:25:12;8.07;;;3.70;;
69161;SDS011;56269;51.738;21.652;2022-07-10T04:27:38;7.20;;;3.50;;
69161;SDS011;56269;51.738;21.652;2022-07-10T04:30:05;8.48;;;3.25;;
69161;SDS011;56269;51.738;21.652;2022-07-10T04:32:31;7.90;;;4.00;;
69161;SDS011;56269;51.738;21.652;2022-07-10T04:34:58;8.48;;;3.47;;
69161;SDS011;56269;51.738;21.652;2022-07-10T04:37:24;7.50;;;3.90;;
69161;SDS011;56269;51.738;21.652;2022-07-10T04:39:50;6.97;;;3.28;;
69161;SDS011;56269;51.738;21.652;2022-07-10T04:42:16;7.67;;;3.40;;
69161;SDS011;56269;51.738;21.652;2022-07-10T04:44:42;7.72;;;3.38;;
69161;SDS011;56269;51.738;21.652;2022-07-10T04:47:08;7.85;;;3.40;;
69161;SDS011;56269;51.738;21.652;2022-07-10T04:49:34;8.07;;;3.25;;
69161;SDS011;56269;51.738;21.652;2022-07-10T04:52:01;7.03;;;2.83;;
69161;SDS011;56269;51.738;21.652;2022-07-10T04:54:27;6.40;;;2.85;;
69161;SDS011;56269;51.738;21.652;2022-07-10T04:56:53;6.88;;;2.95;;
69161;SDS011;56269;51.738;21.652;2022-07-10T04:59:19;7.35;;;3.10;;
69161;SDS011;56269;51.738;21.652;2022-07-10T05:01:45;6.20;;;3.00;;
69161;SDS011;56269;51.738;21.652;2022-07-10T05:04:11;6.40;;;2.80;;
69161;SDS011;56269;51.738;21.652;2022-07-10T05:06:37;7.65;;;3.15;;
69161;SDS011;56269;51.738;21.652;2022-07-10T05:09:03;7.53;;;3.00;;
69161;SDS011;56269;51.738;21.652;2022-07-10T05:11:29;6.47;;;3.10;;
69161;SDS011;56269;51.738;21.652;2022-07-10T05:13:57;6.80;;;3.03;;
69161;SDS011;56269;51.738;21.652;2022-07-10T05:16:23;6.65;;;3.03;;
69161;SDS011;56269;51.738;21.652;2022-07-10T05:18:49;6.63;;;2.72;;
69161;SDS011;56269;51.738;21.652;2022-07-10T05:21:15;6.65;;;2.55;;
69161;SDS011;56269;51.738;21.652;2022-07-10T05:23:42;6.23;;;2.60;;
69161;SDS011;56269;51.738;21.652;2022-07-10T05:26:08;6.90;;;2.58;;
69161;SDS011;56269;51.738;21.652;2022-07-10T05:28:34;6.35;;;2.20;;
69161;SDS011;56269;51.738;21.652;2022-07-10T05:31:00;5.80;;;2.50;;
69161;SDS011;56269;51.738;21.652;2022-07-10T05:33:26;7.10;;;2.77;;
69161;SDS011;56269;51.738;21.652;2022-07-10T05:35:53;5.93;;;2.70;;
69161;SDS011;56269;51.738;21.652;2022-07-10T05:38:20;6.22;;;2.60;;
69161;SDS011;56269;51.738;21.652;2022-07-10T05:40:46;5.90;;;2.40;;
69161;SDS011;56269;51.738;21.652;2022-07-10T05:43:12;6.45;;;2.60;;
69161;SDS011;56269;51.738;21.652;2022-07-10T05:45:38;6.03;;;2.73;;
69161;SDS011;56269;51.738;21.652;2022-07-10T05:48:04;6.13;;;2.40;;
69161;SDS011;56269;51.738;21.652;2022-07-10T05:50:30;5.38;;;2.35;;
69161;SDS011;56269;51.738;21.652;2022-07-10T05:52:56;5.53;;;2.25;;
69161;SDS011;56269;51.738;21.652;2022-07-10T05:55:22;5.13;;;2.15;;
69161;SDS011;56269;51.738;21.652;2022-07-10T05:57:49;7.03;;;2.40;;
69161;SDS011;56269;51.738;21.652;2022-07-10T06:00:16;5.10;;;2.38;;
69161;SDS011;56269;51.738;21.652;2022-07-10T06:02:42;5.35;;;2.25;;
69161;SDS011;56269;51.738;21.652;2022-07-10T06:05:08;6.55;;;2.47;;
69161;SDS011;56269;51.738;21.652;2022-07-10T06:07:35;6.68;;;2.28;;
69161;SDS011;56269;51.738;21.652;2022-07-10T06:10:02;5.53;;;2.23;;
69161;SDS011;56269;51.738;21.652;2022-07-10T06:12:29;5.55;;;2.20;;
69161;SDS011;56269;51.738;21.652;2022-07-10T06:14:56;5.38;;;2.20;;
69161;SDS011;56269;51.738;21.652;2022-07-10T06:17:22;4.70;;;1.80;;
69161;SDS011;56269;51.738;21.652;2022-07-10T06:19:48;6.33;;;2.40;;
69161;SDS011;56269;51.738;21.652;2022-07-10T06:22:14;5.70;;;2.53;;
69161;SDS011;56269;51.738;21.652;2022-07-10T06:24:56;7.93;;;2.28;;
69161;SDS011;56269;51.738;21.652;2022-07-10T06:27:23;6.57;;;2.58;;
69161;SDS011;56269;51.738;21.652;2022-07-10T06:29:49;4.85;;;1.90;;
69161;SDS011;56269;51.738;21.652;2022-07-10T06:32:15;8.00;;;2.20;;
69161;SDS011;56269;51.738;21.652;2022-07-10T06:34:42;7.30;;;2.17;;
69161;SDS011;56269;51.738;21.652;2022-07-10T06:37:07;4.55;;;2.00;;
69161;SDS011;56269;51.738;21.652;2022-07-10T06:39:34;6.75;;;2.15;;
69161;SDS011;56269;51.738;21.652;2022-07-10T06:42:03;5.40;;;1.90;;
69161;SDS011;56269;51.738;21.652;2022-07-10T06:44:30;5.80;;;1.95;;
69161;SDS011;56269;51.738;21.652;2022-07-10T06:46:56;5.78;;;1.90;;
69161;SDS011;56269;51.738;21.652;2022-07-10T06:49:41;4.78;;;1.75;;
69161;SDS011;56269;51.738;21.652;2022-07-10T06:52:08;4.45;;;1.40;;
69161;SDS011;56269;51.738;21.652;2022-07-10T06:54:34;5.13;;;1.60;;
69161;SDS011;56269;51.738;21.652;2022-07-10T06:57:00;4.35;;;1.70;;
69161;SDS011;56269;51.738;21.652;2022-07-10T06:59:26;5.75;;;1.90;;
69161;SDS011;56269;51.738;21.652;2022-07-10T07:01:53;5.28;;;1.70;;
69161;SDS011;56269;51.738;21.652;2022-07-10T07:04:19;5.78;;;1.80;;
69161;SDS011;56269;51.738;21.652;2022-07-10T07:06:45;5.63;;;1.93;;
69161;SDS011;56269;51.738;21.652;2022-07-10T07:09:11;4.90;;;1.40;;
69161;SDS011;56269;51.738;21.652;2022-07-10T07:11:37;6.22;;;1.83;;
69161;SDS011;56269;51.738;21.652;2022-07-10T07:14:03;5.07;;;1.80;;
69161;SDS011;56269;51.738;21.652;2022-07-10T07:16:29;5.47;;;1.40;;
69161;SDS011;56269;51.738;21.652;2022-07-10T07:19:08;4.93;;;1.55;;
69161;SDS011;56269;51.738;21.652;2022-07-10T07:21:43;4.07;;;1.35;;
69161;SDS011;56269;51.738;21.652;2022-07-10T07:24:28;4.93;;;1.55;;
69161;SDS011;56269;51.738;21.652;2022-07-10T07:26:54;3.47;;;1.30;;
69161;SDS011;56269;51.738;21.652;2022-07-10T07:29:20;5.78;;;1.50;;
69161;SDS011;56269;51.738;21.652;2022-07-10T07:31:46;5.50;;;1.58;;
69161;SDS011;56269;51.738;21.652;2022-07-10T07:34:12;5.88;;;1.50;;
69161;SDS011;56269;51.738;21.652;2022-07-10T07:36:38;4.82;;;1.30;;
69161;SDS011;56269;51.738;21.652;2022-07-10T07:39:05;4.43;;;1.30;;
69161;SDS011;56269;51.738;21.652;2022-07-10T07:41:31;5.65;;;1.35;;
69161;SDS011;56269;51.738;21.652;2022-07-10T07:43:57;4.30;;;1.40;;
69161;SDS011;56269;51.738;21.652;2022-07-10T07:46:23;4.38;;;1.30;;
69161;SDS011;56269;51.738;21.652;2022-07-10T07:48:49;5.13;;;1.40;;
69161;SDS011;56269;51.738;21.652;2022-07-10T07:51:15;5.05;;;1.25;;
69161;SDS011;56269;51.738;21.652;2022-07-10T07:53:43;5.70;;;1.42;;
69161;SDS011;56269;51.738;21.652;2022-07-10T07:56:09;6.05;;;1.35;;
69161;SDS011;56269;51.738;21.652;2022-07-10T07:58:35;5.07;;;1.45;;
69161;SDS011;56269;51.738;21.652;2022-07-10T08:01:01;4.40;;;1.40;;
69161;SDS011;56269;51.738;21.652;2022-07-10T08:03:27;5.75;;;1.58;;
69161;SDS011;56269;51.738;21.652;2022-07-10T08:05:53;6.05;;;1.50;;
69161;SDS011;56269;51.738;21.652;2022-07-10T08:08:19;5.22;;;1.52;;
69161;SDS011;56269;51.738;21.652;2022-07-10T08:10:45;5.27;;;1.70;;
69161;SDS011;56269;51.738;21.652;2022-07-10T08:13:11;5.10;;;1.70;;
69161;SDS011;56269;51.738;21.652;2022-07-10T08:15:38;4.82;;;1.70;;
69161;SDS011;56269;51.738;21.652;2022-07-10T08:18:04;4.40;;;1.65;;
69161;SDS011;56269;51.738;21.652;2022-07-10T08:20:32;5.63;;;1.80;;
69161;SDS011;56269;51.738;21.652;2022-07-10T08:22:59;5.70;;;1.97;;
69161;SDS011;56269;51.738;21.652;2022-07-10T08:25:25;5.95;;;1.95;;
69161;SDS011;56269;51.738;21.652;2022-07-10T08:27:52;5.40;;;2.28;;
69161;SDS011;56269;51.738;21.652;2022-07-10T08:30:19;6.00;;;2.42;;
69161;SDS011;56269;51.738;21.652;2022-07-10T08:32:45;6.10;;;2.28;;
69161;SDS011;56269;51.738;21.652;2022-07-10T08:35:11;7.07;;;2.30;;
69161;SDS011;56269;51.738;21.652;2022-07-10T08:37:39;5.95;;;2.50;;
69161;SDS011;56269;51.738;21.652;2022-07-10T08:40:08;5.78;;;2.33;;
69161;SDS011;56269;51.738;21.652;2022-07-10T08:42:35;7.25;;;2.63;;
69161;SDS011;56269;51.738;21.652;2022-07-10T08:45:02;7.13;;;2.58;;
69161;SDS011;56269;51.738;21.652;2022-07-10T08:47:28;5.77;;;2.50;;
69161;SDS011;56269;51.738;21.652;2022-07-10T08:49:56;7.78;;;2.33;;
69161;SDS011;56269;51.738;21.652;2022-07-10T08:52:26;6.22;;;2.60;;
69161;SDS011;56269;51.738;21.652;2022-07-10T08:54:59;7.05;;;2.40;;
69161;SDS011;56269;51.738;21.652;2022-07-10T08:57:25;8.85;;;2.60;;
69161;SDS011;56269;51.738;21.652;2022-07-10T08:59:52;5.73;;;2.30;;
69161;SDS011;56269;51.738;21.652;2022-07-10T09:02:19;6.43;;;2.60;;
69161;SDS011;56269;51.738;21.652;2022-07-10T09:04:45;6.13;;;2.42;;
69161;SDS011;56269;51.738;21.652;2022-07-10T09:07:12;7.18;;;2.50;;
69161;SDS011;56269;51.738;21.652;2022-07-10T09:09:56;6.43;;;2.22;;
69161;SDS011;56269;51.738;21.652;2022-07-10T09:12:23;8.07;;;2.63;;
69161;SDS011;56269;51.738;21.652;2022-07-10T09:14:50;7.18;;;2.97;;
69161;SDS011;56269;51.738;21.652;2022-07-10T09:17:17;7.18;;;2.90;;
69161;SDS011;56269;51.738;21.652;2022-07-10T09:19:44;10.20;;;3.83;;
69161;SDS011;56269;51.738;21.652;2022-07-10T09:22:10;10.27;;;3.00;;
69161;SDS011;56269;51.738;21.652;2022-07-10T09:24:41;7.00;;;2.37;;
69161;SDS011;56269;51.738;21.652;2022-07-10T09:27:09;7.57;;;2.65;;
69161;SDS011;56269;51.738;21.652;2022-07-10T09:29:57;6.13;;;2.15;;
69161;SDS011;56269;51.738;21.652;2022-07-10T09:32:24;4.70;;;2.00;;
69161;SDS011;56269;51.738;21.652;2022-07-10T09:34:51;5.55;;;2.35;;
69161;SDS011;56269;51.738;21.652;2022-07-10T09:37:40;6.33;;;2.10;;
69161;SDS011;56269;51.738;21.652;2022-07-10T09:40:08;5.55;;;1.92;;
69161;SDS011;56269;51.738;21.652;2022-07-10T09:42:41;8.38;;;2.00;;
69161;SDS011;56269;51.738;21.652;2022-07-10T09:45:13;6.13;;;2.13;;
69161;SDS011;56269;51.738;21.652;2022-07-10T09:47:44;6.88;;;1.90;;
69161;SDS011;56269;51.738;21.652;2022-07-10T09:50:23;6.63;;;1.90;;
69161;SDS011;56269;51.738;21.652;2022-07-10T09:52:58;4.57;;;1.80;;
69161;SDS011;56269;51.738;21.652;2022-07-10T09:55:25;5.35;;;2.08;;
69161;SDS011;56269;51.738;21.652;2022-07-10T09:57:56;5.93;;;1.95;;
69161;SDS011;56269;51.738;21.652;2022-07-10T10:00:24;6.15;;;2.03;;
69161;SDS011;56269;51.738;21.652;2022-07-10T10:02:55;4.77;;;1.80;;
69161;SDS011;56269;51.738;21.652;2022-07-10T10:05:28;4.57;;;1.50;;
69161;SDS011;56269;51.738;21.652;2022-07-10T10:07:59;4.30;;;1.48;;
69161;SDS011;56269;51.738;21.652;2022-07-10T10:10:29;3.83;;;1.55;;
69161;SDS011;56269;51.738;21.652;2022-07-10T10:12:58;4.50;;;1.60;;
69161;SDS011;56269;51.738;21.652;2022-07-10T10:15:27;5.50;;;1.30;;
69161;SDS011;56269;51.738;21.652;2022-07-10T10:17:56;4.32;;;1.50;;
69161;SDS011;56269;51.738;21.652;2022-07-10T10:20:24;6.05;;;1.55;;
69161;SDS011;56269;51.738;21.652;2022-07-10T10:23:13;5.25;;;1.70;;
69161;SDS011;56269;51.738;21.652;2022-07-10T10:25:46;4.35;;;1.30;;
69161;SDS011;56269;51.738;21.652;2022-07-10T10:28:13;5.80;;;1.47;;
69161;SDS011;56269;51.738;21.652;2022-07-10T10:30:42;5.07;;;1.70;;
69161;SDS011;56269;51.738;21.652;2022-07-10T10:35:58;3.90;;;1.40;;
69161;SDS011;56269;51.738;21.652;2022-07-10T10:38:25;4.55;;;1.58;;
69161;SDS011;56269;51.738;21.652;2022-07-10T10:41:24;4.37;;;1.40;;
69161;SDS011;56269;51.738;21.652;2022-07-10T10:46:33;5.82;;;1.63;;
69161;SDS011;56269;51.738;21.652;2022-07-10T10:49:09;5.00;;;1.55;;
69161;SDS011;56269;51.738;21.652;2022-07-10T10:54:31;5.83;;;1.30;;
69161;SDS011;56269;51.738;21.652;2022-07-10T10:57:17;2.90;;;1.08;;
69161;SDS011;56269;51.738;21.652;2022-07-10T10:59:53;5.35;;;1.20;;
69161;SDS011;56269;51.738;21.652;2022-07-10T11:02:27;6.22;;;1.50;;
69161;SDS011;56269;51.738;21.652;2022-07-10T11:12:58;4.82;;;1.50;;
69161;SDS011;56269;51.738;21.652;2022-07-10T11:15:26;4.60;;;1.40;;
69161;SDS011;56269;51.738;21.652;2022-07-10T11:18:05;3.20;;;1.25;;
69161;SDS011;56269;51.738;21.652;2022-07-10T11:20:36;7.00;;;1.50;;
69161;SDS011;56269;51.738;21.652;2022-07-10T11:26:03;4.53;;;1.45;;
69161;SDS011;56269;51.738;21.652;2022-07-10T11:28:41;4.40;;;1.60;;
69161;SDS011;56269;51.738;21.652;2022-07-10T11:31:15;3.97;;;1.40;;
69161;SDS011;56269;51.738;21.652;2022-07-10T11:33:42;4.30;;;1.40;;
69161;SDS011;56269;51.738;21.652;2022-07-10T11:36:13;4.88;;;1.85;;
69161;SDS011;56269;51.738;21.652;2022-07-10T11:38:41;5.50;;;1.60;;
69161;SDS011;56269;51.738;21.652;2022-07-10T11:41:17;4.22;;;1.40;;
69161;SDS011;56269;51.738;21.652;2022-07-10T11:43:48;5.65;;;1.63;;
69161;SDS011;56269;51.738;21.652;2022-07-10T11:46:17;5.13;;;1.70;;
69161;SDS011;56269;51.738;21.652;2022-07-10T11:48:45;4.35;;;1.52;;
69161;SDS011;56269;51.738;21.652;2022-07-10T11:51:32;4.43;;;1.50;;
69161;SDS011;56269;51.738;21.652;2022-07-10T11:54:03;4.72;;;1.50;;
69161;SDS011;56269;51.738;21.652;2022-07-10T11:56:42;4.43;;;1.60;;
69161;SDS011;56269;51.738;21.652;2022-07-10T11:59:15;3.67;;;1.10;;
69161;SDS011;56269;51.738;21.652;2022-07-10T12:01:50;4.63;;;1.63;;
69161;SDS011;56269;51.738;21.652;2022-07-10T12:04:19;5.72;;;1.83;;
69161;SDS011;56269;51.738;21.652;2022-07-10T12:06:51;4.32;;;1.52;;
69161;SDS011;56269;51.738;21.652;2022-07-10T12:09:20;4.82;;;1.48;;
69161;SDS011;56269;51.738;21.652;2022-07-10T12:12:03;6.07;;;1.50;;
69161;SDS011;56269;51.738;21.652;2022-07-10T12:14:33;4.13;;;1.45;;
69161;SDS011;56269;51.738;21.652;2022-07-10T12:17:00;5.20;;;1.48;;
69161;SDS011;56269;51.738;21.652;2022-07-10T12:19:28;4.85;;;1.42;;
69161;SDS011;56269;51.738;21.652;2022-07-10T12:21:58;4.40;;;1.45;;
69161;SDS011;56269;51.738;21.652;2022-07-10T12:24:25;3.83;;;1.43;;
69161;SDS011;56269;51.738;21.652;2022-07-10T12:26:52;4.35;;;1.52;;
69161;SDS011;56269;51.738;21.652;2022-07-10T12:29:21;3.92;;;1.42;;
69161;SDS011;56269;51.738;21.652;2022-07-10T12:31:50;5.45;;;1.40;;
69161;SDS011;56269;51.738;21.652;2022-07-10T12:34:17;3.63;;;1.20;;
69161;SDS011;56269;51.738;21.652;2022-07-10T12:36:53;4.07;;;1.20;;
69161;SDS011;56269;51.738;21.652;2022-07-10T12:39:20;5.68;;;1.30;;
69161;SDS011;56269;51.738;21.652;2022-07-10T12:41:53;4.43;;;1.45;;
69161;SDS011;56269;51.738;21.652;2022-07-10T12:47:11;5.03;;;1.75;;
69161;SDS011;56269;51.738;21.652;2022-07-10T12:52:34;5.00;;;2.10;;
69161;SDS011;56269;51.738;21.652;2022-07-10T12:55:08;5.32;;;1.92;;
69161;SDS011;56269;51.738;21.652;2022-07-10T12:57:52;6.85;;;1.92;;
69161;SDS011;56269;51.738;21.652;2022-07-10T13:02:58;6.37;;;1.97;;
69161;SDS011;56269;51.738;21.652;2022-07-10T13:05:30;5.93;;;1.88;;
69161;SDS011;56269;51.738;21.652;2022-07-10T13:08:10;6.03;;;1.92;;
69161;SDS011;56269;51.738;21.652;2022-07-10T13:10:51;5.50;;;1.90;;
69161;SDS011;56269;51.738;21.652;2022-07-10T13:13:19;7.22;;;2.03;;
69161;SDS011;56269;51.738;21.652;2022-07-10T13:15:45;5.13;;;1.97;;
69161;SDS011;56269;51.738;21.652;2022-07-10T13:18:16;6.03;;;2.00;;
69161;SDS011;56269;51.738;21.652;2022-07-10T13:20:44;7.88;;;2.40;;
69161;SDS011;56269;51.738;21.652;2022-07-10T13:23:11;7.40;;;2.10;;
69161;SDS011;56269;51.738;21.652;2022-07-10T13:25:38;5.78;;;2.10;;
69161;SDS011;56269;51.738;21.652;2022-07-10T13:28:05;5.67;;;1.90;;
69161;SDS011;56269;51.738;21.652;2022-07-10T13:30:32;7.00;;;1.90;;
69161;SDS011;56269;51.738;21.652;2022-07-10T13:32:59;5.05;;;1.80;;
69161;SDS011;56269;51.738;21.652;2022-07-10T13:35:28;6.63;;;1.50;;
69161;SDS011;56269;51.738;21.652;2022-07-10T13:37:55;4.93;;;1.70;;
69161;SDS011;56269;51.738;21.652;2022-07-10T13:40:25;5.00;;;1.70;;
69161;SDS011;56269;51.738;21.652;2022-07-10T13:42:52;5.07;;;1.58;;
69161;SDS011;56269;51.738;21.652;2022-07-10T13:45:19;5.45;;;1.60;;
69161;SDS011;56269;51.738;21.652;2022-07-10T13:47:45;4.82;;;1.90;;
69161;SDS011;56269;51.738;21.652;2022-07-10T13:50:12;4.20;;;1.40;;
69161;SDS011;56269;51.738;21.652;2022-07-10T13:52:37;4.63;;;1.80;;
69161;SDS011;56269;51.738;21.652;2022-07-10T13:55:04;5.90;;;1.90;;
69161;SDS011;56269;51.738;21.652;2022-07-10T13:57:34;6.78;;;1.65;;
69161;SDS011;56269;51.738;21.652;2022-07-10T14:00:00;4.55;;;1.50;;
69161;SDS011;56269;51.738;21.652;2022-07-10T14:02:26;4.67;;;1.50;;
69161;SDS011;56269;51.738;21.652;2022-07-10T14:04:53;5.53;;;1.73;;
69161;SDS011;56269;51.738;21.652;2022-07-10T14:07:19;4.72;;;1.20;;
69161;SDS011;56269;51.738;21.652;2022-07-10T14:09:45;5.00;;;1.13;;
69161;SDS011;56269;51.738;21.652;2022-07-10T14:12:11;5.03;;;1.27;;
69161;SDS011;56269;51.738;21.652;2022-07-10T14:14:37;3.30;;;1.00;;
69161;SDS011;56269;51.738;21.652;2022-07-10T14:17:03;8.50;;;3.00;;
69161;SDS011;56269;51.738;21.652;2022-07-10T14:19:29;7.40;;;3.40;;
69161;SDS011;56269;51.738;21.652;2022-07-10T14:21:55;5.28;;;1.60;;
69161;SDS011;56269;51.738;21.652;2022-07-10T14:24:22;4.53;;;1.30;;
69161;SDS011;56269;51.738;21.652;2022-07-10T14:26:48;5.40;;;1.50;;
69161;SDS011;56269;51.738;21.652;2022-07-10T14:29:14;3.85;;;1.27;;
69161;SDS011;56269;51.738;21.652;2022-07-10T14:31:40;6.30;;;1.40;;
69161;SDS011;56269;51.738;21.652;2022-07-10T14:34:06;5.23;;;2.07;;
69161;SDS011;56269;51.738;21.652;2022-07-10T14:36:32;3.78;;;1.50;;
69161;SDS011;56269;51.738;21.652;2022-07-10T14:38:58;5.82;;;1.40;;
69161;SDS011;56269;51.738;21.652;2022-07-10T14:41:24;4.40;;;1.20;;
69161;SDS011;56269;51.738;21.652;2022-07-10T14:43:51;3.70;;;1.30;;
69161;SDS011;56269;51.738;21.652;2022-07-10T14:46:17;5.10;;;1.30;;
69161;SDS011;56269;51.738;21.652;2022-07-10T14:48:43;5.57;;;1.10;;
69161;SDS011;56269;51.738;21.652;2022-07-10T14:51:09;3.90;;;1.20;;
69161;SDS011;56269;51.738;21.652;2022-07-10T14:53:35;3.87;;;1.20;;
69161;SDS011;56269;51.738;21.652;2022-07-10T14:56:02;3.05;;;1.20;;
69161;SDS011;56269;51.738;21.652;2022-07-10T14:58:30;6.25;;;1.20;;
69161;SDS011;56269;51.738;21.652;2022-07-10T15:00:55;4.18;;;1.15;;
69161;SDS011;56269;51.738;21.652;2022-07-10T15:03:22;5.03;;;1.20;;